createdAt,value
2022-08-24T00:02:26.152Z,22.80
2022-08-24T00:04:55.794Z,18.63
2022-08-24T00:07:28.209Z,22.25
2022-08-24T00:09:57.159Z,16.63
2022-08-24T00:12:27.524Z,33.47
2022-08-24T00:14:57.472Z,33.58
2022-08-24T00:17:26.749Z,29.58
2022-08-24T00:19:56.310Z,16.45
2022-08-24T00:22:29.548Z,26.63
2022-08-24T00:25:00.343Z,27.70
2022-08-24T00:27:31.225Z,24.55
2022-08-24T00:30:01.794Z,18.98
2022-08-24T00:32:30.088Z,23.17
2022-08-24T00:34:59.528Z,24.52
2022-08-24T00:37:29.995Z,28.98
2022-08-24T00:39:59.436Z,28.27
2022-08-24T00:42:27.852Z,37.38
2022-08-24T00:44:56.037Z,26.40
2022-08-24T00:47:34.229Z,26.65
2022-08-24T00:50:11.290Z,20.33
2022-08-24T00:52:47.824Z,29.05
2022-08-24T00:55:24.109Z,32.50
2022-08-24T00:58:02.688Z,31.48
2022-08-24T01:00:48.879Z,34.58
2022-08-24T01:03:20.978Z,30.85
2022-08-24T01:05:52.654Z,36.83
2022-08-24T01:08:27.666Z,28.73
2022-08-24T01:11:02.055Z,24.38
2022-08-24T01:13:36.014Z,24.83
2022-08-24T01:16:10.073Z,21.77
2022-08-24T01:18:53.040Z,31.85
2022-08-24T01:24:00.764Z,31.27
2022-08-24T01:26:36.475Z,20.30
2022-08-24T01:29:11.831Z,18.50
2022-08-24T01:31:43.845Z,24.92
2022-08-24T01:34:15.171Z,29.13
2022-08-24T01:36:48.647Z,16.25
2022-08-24T01:39:24.614Z,24.60
2022-08-24T01:41:55.419Z,19.65
2022-08-24T01:44:27.930Z,32.63
2022-08-24T01:46:58.828Z,15.05
2022-08-24T01:49:32.744Z,16.85
2022-08-24T01:52:07.264Z,17.13
2022-08-24T01:54:40.234Z,28.90
2022-08-24T01:57:16.984Z,12.23
2022-08-24T01:59:48.853Z,14.35
2022-08-24T02:02:23.465Z,18.80
2022-08-24T02:04:53.377Z,21.15
2022-08-24T02:07:25.699Z,14.82
2022-08-24T02:10:00.185Z,13.98
2022-08-24T02:12:31.732Z,14.35
2022-08-24T02:15:03.497Z,21.33
2022-08-24T02:17:33.984Z,24.40
2022-08-24T02:20:05.511Z,15.10
2022-08-24T02:22:35.690Z,28.15
2022-08-24T02:25:07.735Z,13.13
2022-08-24T02:27:41.504Z,19.00
2022-08-24T02:30:13.218Z,23.33
2022-08-24T02:32:43.853Z,24.52
2022-08-24T02:35:13.303Z,23.45
2022-08-24T02:37:44.332Z,22.23
2022-08-24T02:40:20.222Z,19.42
2022-08-24T02:42:53.744Z,15.25
2022-08-24T02:45:24.292Z,14.07
2022-08-24T02:47:56.288Z,20.40
2022-08-24T02:50:29.220Z,19.88
2022-08-24T02:53:00.074Z,19.15
2022-08-24T02:55:33.128Z,13.93
2022-08-24T02:58:01.888Z,15.48
2022-08-24T03:00:31.530Z,19.80
2022-08-24T03:03:00.747Z,15.18
2022-08-24T03:05:30.667Z,11.35
2022-08-24T03:08:01.117Z,12.65
2022-08-24T03:10:35.323Z,22.13
2022-08-24T03:13:08.211Z,15.25
2022-08-24T03:15:39.204Z,20.20
2022-08-24T03:18:11.778Z,12.05
2022-08-24T03:20:47.428Z,13.18
2022-08-24T03:23:17.532Z,14.40
2022-08-24T03:25:48.603Z,9.18
2022-08-24T03:28:17.146Z,18.20
2022-08-24T03:30:48.352Z,19.40
2022-08-24T03:33:19.265Z,16.60
2022-08-24T03:35:47.389Z,17.88
2022-08-24T03:38:18.472Z,15.48
2022-08-24T03:40:48.805Z,12.88
2022-08-24T03:43:32.690Z,12.20
2022-08-24T03:46:05.006Z,17.33
2022-08-24T03:48:35.079Z,13.85
2022-08-24T03:51:03.753Z,13.60
2022-08-24T03:53:36.801Z,12.95
2022-08-24T03:56:14.899Z,11.85
2022-08-24T03:58:47.225Z,10.13
2022-08-24T04:01:19.631Z,10.40
2022-08-24T04:03:52.426Z,10.88
2022-08-24T04:06:27.034Z,19.63
2022-08-24T04:08:58.549Z,12.55
2022-08-24T04:11:32.570Z,14.82
2022-08-24T04:14:02.744Z,17.50
2022-08-24T04:16:36.346Z,20.13
2022-08-24T04:19:17.410Z,17.98
2022-08-24T04:21:46.703Z,19.92
2022-08-24T04:24:17.278Z,13.38
2022-08-24T04:26:50.794Z,18.63
2022-08-24T04:29:25.084Z,13.82
2022-08-24T04:31:55.180Z,9.73
2022-08-24T04:34:26.204Z,20.33
2022-08-24T04:36:58.416Z,17.10
2022-08-24T04:39:34.184Z,16.17
2022-08-24T04:42:26.626Z,21.60
2022-08-24T04:44:59.454Z,14.30
2022-08-24T04:47:32.661Z,13.73
2022-08-24T04:50:04.307Z,14.43
2022-08-24T04:52:34.324Z,15.07
2022-08-24T04:55:04.730Z,13.15
2022-08-24T04:57:40.462Z,9.88
2022-08-24T05:00:12.774Z,10.23
2022-08-24T05:02:46.774Z,14.35
2022-08-24T05:05:18.395Z,12.20
2022-08-24T05:07:48.617Z,13.48
2022-08-24T05:10:16.863Z,13.25
2022-08-24T05:12:49.775Z,12.20
2022-08-24T05:15:21.032Z,14.75
2022-08-24T05:17:51.584Z,22.33
2022-08-24T05:20:22.526Z,21.48
2022-08-24T05:22:55.797Z,17.13
2022-08-24T05:25:24.418Z,15.20
2022-08-24T05:27:56.237Z,15.05
2022-08-24T05:30:24.360Z,24.45
2022-08-24T05:32:54.725Z,20.77
2022-08-24T05:35:26.095Z,16.98
2022-08-24T05:37:57.344Z,16.88
2022-08-24T05:40:34.020Z,18.05
2022-08-24T05:43:06.050Z,24.95
2022-08-24T05:45:34.497Z,21.20
2022-08-24T05:48:04.797Z,29.50
2022-08-24T05:51:01.934Z,26.13
2022-08-24T05:53:36.336Z,23.60
2022-08-24T05:56:06.816Z,28.73
2022-08-24T05:58:40.132Z,28.88
2022-08-24T06:01:10.370Z,28.17
2022-08-24T06:03:40.062Z,19.65
2022-08-24T06:06:14.002Z,20.10
2022-08-24T06:08:47.017Z,23.00
2022-08-24T06:14:07.201Z,17.30
2022-08-24T06:16:44.391Z,18.40
2022-08-24T06:19:16.941Z,31.25
2022-08-24T06:21:48.267Z,23.63
2022-08-24T06:24:19.747Z,27.05
2022-08-24T06:27:09.463Z,18.58
2022-08-24T06:29:40.054Z,20.45
2022-08-24T06:32:28.606Z,18.13
2022-08-24T06:34:58.399Z,18.52
2022-08-24T06:37:29.380Z,17.70
2022-08-24T06:39:59.067Z,23.85
2022-08-24T06:42:29.351Z,23.90
2022-08-24T06:47:30.290Z,19.75
2022-08-24T06:50:06.513Z,24.37
2022-08-24T06:52:39.759Z,25.75
2022-08-24T06:55:11.007Z,25.15
2022-08-24T06:57:39.375Z,20.38
2022-08-24T07:00:11.288Z,17.92
2022-08-24T07:02:42.589Z,15.27
2022-08-24T07:05:12.034Z,12.65
2022-08-24T07:08:01.339Z,11.52
2022-08-24T07:10:31.559Z,11.70
2022-08-24T07:13:02.272Z,14.90
2022-08-24T07:15:33.571Z,15.15
2022-08-24T07:18:15.964Z,11.20
2022-08-24T07:20:51.340Z,15.25
2022-08-24T07:23:42.107Z,15.40
2022-08-24T07:26:21.225Z,17.92
2022-08-24T07:29:00.251Z,14.77
2022-08-24T07:31:35.628Z,11.10
2022-08-24T07:34:14.362Z,20.48
2022-08-24T07:36:45.032Z,12.27
2022-08-24T07:39:14.780Z,14.05
2022-08-24T07:42:10.886Z,11.73
2022-08-24T07:44:38.058Z,10.52
2022-08-24T07:47:34.320Z,13.20
2022-08-24T07:50:01.135Z,12.80
2022-08-24T07:52:33.113Z,14.00
2022-08-24T07:55:06.682Z,25.05
2022-08-24T07:57:47.651Z,32.65
2022-08-24T08:00:21.516Z,35.65
2022-08-24T08:02:59.420Z,38.03
2022-08-24T08:05:29.363Z,54.33
2022-08-24T08:08:00.867Z,39.70
2022-08-24T08:10:31.921Z,23.90
2022-08-24T08:13:01.052Z,13.70
2022-08-24T08:15:30.891Z,31.95
2022-08-24T08:18:09.807Z,31.73
2022-08-24T08:20:43.861Z,20.88
2022-08-24T08:23:34.497Z,9.18
2022-08-24T08:26:15.678Z,27.35
2022-08-24T08:29:01.098Z,13.05
2022-08-24T08:31:34.621Z,13.02
2022-08-24T08:34:07.490Z,9.68
2022-08-24T08:36:40.570Z,8.05
2022-08-24T08:39:13.465Z,18.02
2022-08-24T08:42:14.477Z,31.15
2022-08-24T08:44:54.263Z,38.67
2022-08-24T08:47:53.263Z,14.75
2022-08-24T08:50:35.812Z,8.85
2022-08-24T08:53:42.544Z,10.35
2022-08-24T08:56:23.779Z,9.45
2022-08-24T08:59:04.193Z,10.60
2022-08-24T09:02:10.717Z,20.83
2022-08-24T09:05:16.153Z,20.60
2022-08-24T09:08:00.409Z,31.40
2022-08-24T09:10:46.621Z,23.55
2022-08-24T09:13:39.319Z,19.92
2022-08-24T09:16:33.624Z,25.95
2022-08-24T09:19:25.954Z,22.77
2022-08-24T09:22:15.292Z,19.73
2022-08-24T09:25:24.795Z,21.40
2022-08-24T09:28:43.774Z,20.90
2022-08-24T09:31:37.922Z,15.38
2022-08-24T09:34:20.493Z,12.48
2022-08-24T09:37:17.555Z,20.20
2022-08-24T09:40:03.562Z,16.15
2022-08-24T09:43:13.428Z,11.43
2022-08-24T09:46:13.898Z,7.85
2022-08-24T09:49:15.347Z,9.77
2022-08-24T09:52:11.266Z,8.10
2022-08-24T09:55:14.163Z,6.15
2022-08-24T09:58:03.803Z,7.57
2022-08-24T10:00:41.967Z,7.63
2022-08-24T10:03:40.288Z,8.68
2022-08-24T10:06:29.988Z,5.63
2022-08-24T10:09:25.197Z,4.22
2022-08-24T10:12:06.424Z,5.68
2022-08-24T10:14:52.941Z,9.63
2022-08-24T10:17:35.842Z,6.65
2022-08-24T10:20:24.081Z,5.82
2022-08-24T10:23:22.119Z,8.00
2022-08-24T10:25:58.198Z,10.18
2022-08-24T10:29:00.922Z,5.90
2022-08-24T10:31:43.834Z,6.05
2022-08-24T10:34:32.532Z,5.28
2022-08-24T10:37:42.319Z,4.40
2022-08-24T10:40:35.113Z,7.70
2022-08-24T10:43:35.938Z,4.40
2022-08-24T10:46:39.799Z,3.75
2022-08-24T10:49:52.182Z,4.72
2022-08-24T10:52:48.897Z,8.18
2022-08-24T10:55:22.455Z,3.85
2022-08-24T10:58:08.314Z,4.15
2022-08-24T11:00:37.917Z,6.20
2022-08-24T11:03:11.145Z,9.40
2022-08-24T11:05:43.701Z,3.72
2022-08-24T11:08:21.579Z,3.08
2022-08-24T11:11:09.253Z,6.22
2022-08-24T11:13:38.999Z,4.20
2022-08-24T11:16:07.767Z,4.10
2022-08-24T11:18:49.653Z,5.78
2022-08-24T11:21:34.909Z,4.68
2022-08-24T11:24:07.161Z,3.67
2022-08-24T11:26:53.603Z,8.77
2022-08-24T11:29:23.230Z,6.32
2022-08-24T11:31:52.781Z,12.55
2022-08-24T11:34:33.269Z,8.07
2022-08-24T11:37:01.522Z,3.58
2022-08-24T11:39:36.190Z,3.70
2022-08-24T11:42:29.224Z,3.47
2022-08-24T11:45:08.840Z,3.63
2022-08-24T11:47:49.668Z,5.80
2022-08-24T11:50:30.606Z,2.58
2022-08-24T11:53:12.070Z,4.75
2022-08-24T11:55:57.178Z,4.18
2022-08-24T11:58:39.732Z,4.03
2022-08-24T12:01:18.805Z,3.25
2022-08-24T12:04:02.455Z,2.75
2022-08-24T12:06:44.250Z,4.28
2022-08-24T12:09:25.839Z,2.58
2022-08-24T12:12:03.734Z,5.55
2022-08-24T12:14:38.375Z,2.15
2022-08-24T12:17:16.336Z,3.50
2022-08-24T12:19:50.361Z,3.58
2022-08-24T12:22:21.105Z,5.20
2022-08-24T12:24:54.647Z,2.58
2022-08-24T12:27:26.686Z,2.35
2022-08-24T12:30:00.430Z,6.00
2022-08-24T12:32:37.640Z,3.75
2022-08-24T12:35:10.216Z,2.63
2022-08-24T12:37:44.495Z,3.38
2022-08-24T12:40:22.961Z,6.35
2022-08-24T12:42:56.241Z,4.72
2022-08-24T12:45:26.025Z,4.65
2022-08-24T12:47:59.942Z,8.25
2022-08-24T12:50:33.344Z,7.47
2022-08-24T12:53:32.190Z,3.25
2022-08-24T12:56:24.080Z,2.92
2022-08-24T12:59:00.310Z,14.00
2022-08-24T13:01:35.761Z,4.65
2022-08-24T13:04:09.257Z,4.20
2022-08-24T13:06:42.394Z,3.67
2022-08-24T13:11:43.647Z,3.63
2022-08-24T13:14:22.209Z,2.13
2022-08-24T13:17:12.622Z,4.10
2022-08-24T13:19:45.728Z,8.07
2022-08-24T13:25:02.932Z,4.07
2022-08-24T13:28:04.201Z,5.03
2022-08-24T13:31:05.914Z,6.40
2022-08-24T13:33:46.460Z,9.85
2022-08-24T13:36:51.684Z,7.40
2022-08-24T13:39:56.659Z,5.95
2022-08-24T13:42:55.562Z,6.18
2022-08-24T13:45:34.224Z,4.18
2022-08-24T13:48:30.064Z,2.80
2022-08-24T13:51:37.961Z,3.28
2022-08-24T13:54:29.748Z,6.65
2022-08-24T13:57:11.810Z,6.05
2022-08-24T14:00:01.281Z,3.90
2022-08-24T14:02:46.947Z,4.90
2022-08-24T14:05:31.785Z,4.07
2022-08-24T14:08:15.253Z,3.13
2022-08-24T14:10:57.446Z,5.65
2022-08-24T14:13:41.185Z,8.48
2022-08-24T14:16:49.543Z,6.63
2022-08-24T14:19:25.276Z,6.00
2022-08-24T14:22:10.384Z,3.33
2022-08-24T14:24:49.320Z,5.72
2022-08-24T14:27:38.633Z,6.07
2022-08-24T14:30:45.536Z,4.63
2022-08-24T14:33:22.910Z,3.55
2022-08-24T14:36:19.398Z,5.57
2022-08-24T14:38:59.707Z,8.60
2022-08-24T14:41:49.384Z,16.67
2022-08-24T14:44:43.129Z,43.47
2022-08-24T14:47:26.851Z,47.63
2022-08-24T14:50:14.985Z,73.60
2022-08-24T14:53:19.965Z,53.75
2022-08-24T14:56:01.191Z,56.97
2022-08-24T14:58:42.083Z,57.88
2022-08-24T15:01:40.745Z,84.78
2022-08-24T15:04:30.703Z,57.78
2022-08-24T15:07:28.592Z,44.17
2022-08-24T15:10:01.899Z,29.65
2022-08-24T15:12:44.484Z,24.58
2022-08-24T15:15:24.127Z,16.20
2022-08-24T15:18:09.671Z,11.40
2022-08-24T15:20:57.311Z,10.10
2022-08-24T15:23:37.474Z,7.75
2022-08-24T15:26:13.631Z,8.85
2022-08-24T15:28:55.202Z,7.68
2022-08-24T15:34:00.775Z,8.00
2022-08-24T15:39:05.255Z,4.60
2022-08-24T15:41:37.987Z,6.17
2022-08-24T15:44:20.416Z,7.13
2022-08-24T15:46:56.479Z,7.75
2022-08-24T15:49:29.460Z,5.63
2022-08-24T15:52:02.876Z,10.05
2022-08-24T15:54:40.925Z,8.93
2022-08-24T15:57:27.693Z,5.70
2022-08-24T16:00:09.527Z,5.88
2022-08-24T16:02:39.479Z,8.13
2022-08-24T16:05:22.156Z,8.18
2022-08-24T16:08:14.339Z,9.30
2022-08-24T16:10:44.905Z,8.43
2022-08-24T16:13:26.903Z,8.35
2022-08-24T16:16:06.179Z,15.38
2022-08-24T16:19:08.544Z,7.88
2022-08-24T16:21:58.550Z,6.72
2022-08-24T16:24:38.456Z,8.27
2022-08-24T16:27:11.701Z,6.00
2022-08-24T16:29:56.285Z,5.25
2022-08-24T16:32:53.748Z,7.05
2022-08-24T16:35:26.954Z,7.25
2022-08-24T16:40:31.917Z,7.72
2022-08-24T16:43:05.179Z,6.60
2022-08-24T16:45:36.178Z,8.90
2022-08-24T16:48:07.399Z,4.72
2022-08-24T16:50:38.400Z,8.13
2022-08-24T16:53:07.330Z,5.05
2022-08-24T16:55:39.884Z,5.57
2022-08-24T17:00:39.984Z,6.60
2022-08-24T17:03:15.059Z,7.65
2022-08-24T17:05:51.092Z,10.43
2022-08-24T17:08:24.707Z,8.00
2022-08-24T17:10:56.152Z,5.43
2022-08-24T17:16:18.652Z,5.65
2022-08-24T17:18:49.373Z,4.13
2022-08-24T17:21:18.281Z,4.07
2022-08-24T17:23:49.448Z,7.53
2022-08-24T17:26:21.460Z,6.03
2022-08-24T17:28:54.688Z,3.78
2022-08-24T17:31:24.886Z,6.80
2022-08-24T17:33:54.614Z,4.80
2022-08-24T17:36:25.035Z,5.00
2022-08-24T17:38:56.351Z,5.25
2022-08-24T17:41:26.648Z,5.57
2022-08-24T17:44:02.216Z,5.80
2022-08-24T17:46:31.815Z,3.60
2022-08-24T17:49:06.302Z,5.22
2022-08-24T17:51:41.523Z,7.65
2022-08-24T17:54:10.377Z,9.23
2022-08-24T17:56:42.694Z,5.28
2022-08-24T17:59:26.410Z,6.57
2022-08-24T18:02:02.563Z,8.52
2022-08-24T18:04:43.991Z,8.73
2022-08-24T18:07:22.179Z,6.25
2022-08-24T18:10:15.540Z,7.32
2022-08-24T18:12:44.360Z,6.97
2022-08-24T18:15:35.448Z,13.48
2022-08-24T18:18:09.944Z,7.50
2022-08-24T18:20:43.607Z,11.30
2022-08-24T18:23:15.051Z,38.72
2022-08-24T18:25:53.829Z,10.90
2022-08-24T18:28:24.300Z,13.25
2022-08-24T18:30:55.674Z,8.55
2022-08-24T18:33:27.760Z,11.93
2022-08-24T18:36:04.157Z,12.27
2022-08-24T18:38:35.408Z,12.23
2022-08-24T18:41:04.753Z,15.93
2022-08-24T18:43:35.777Z,15.95
2022-08-24T18:46:07.103Z,9.93
2022-08-24T18:48:38.991Z,10.23
2022-08-24T18:51:10.385Z,9.63
2022-08-24T18:53:40.386Z,10.32
2022-08-24T18:56:12.657Z,7.72
2022-08-24T19:01:18.950Z,14.30
2022-08-24T19:03:47.324Z,10.70
2022-08-24T19:06:23.208Z,6.65
2022-08-24T19:08:53.332Z,8.70
2022-08-24T19:11:26.000Z,12.18
2022-08-24T19:13:54.789Z,12.00
2022-08-24T19:16:31.167Z,10.20
2022-08-24T19:19:01.536Z,13.90
2022-08-24T19:21:41.829Z,12.63
2022-08-24T19:24:13.376Z,8.55
2022-08-24T19:26:43.667Z,11.65
2022-08-24T19:29:12.809Z,6.57
2022-08-24T19:31:43.783Z,12.10
2022-08-24T19:34:14.349Z,21.20
2022-08-24T19:36:47.638Z,15.40
2022-08-24T19:39:18.577Z,16.92
2022-08-24T19:42:06.355Z,11.48
2022-08-24T19:44:57.715Z,10.68
2022-08-24T19:47:28.492Z,13.38
2022-08-24T19:49:58.811Z,14.85
2022-08-24T19:52:34.753Z,11.13
2022-08-24T19:55:06.535Z,10.90
2022-08-24T19:57:44.904Z,11.05
2022-08-24T20:00:31.783Z,15.15
2022-08-24T20:03:08.703Z,14.88
2022-08-24T20:05:37.942Z,13.00
2022-08-24T20:08:11.442Z,10.55
2022-08-24T20:10:42.375Z,16.60
2022-08-24T20:13:13.381Z,13.65
2022-08-24T20:15:44.704Z,13.85
2022-08-24T20:18:17.835Z,13.68
2022-08-24T20:20:58.076Z,15.45
2022-08-24T20:23:31.282Z,15.68
2022-08-24T20:26:03.990Z,13.50
2022-08-24T20:28:40.525Z,13.77
2022-08-24T20:31:10.637Z,11.05
2022-08-24T20:33:39.128Z,13.52
2022-08-24T20:36:08.310Z,9.88
2022-08-24T20:38:37.581Z,13.55
2022-08-24T20:41:06.069Z,10.13
2022-08-24T20:43:34.354Z,18.98
2022-08-24T20:46:02.794Z,12.27
2022-08-24T20:48:35.995Z,10.27
2022-08-24T20:51:05.726Z,8.07
2022-08-24T20:53:33.923Z,10.02
2022-08-24T20:56:10.217Z,9.50
2022-08-24T20:58:39.584Z,10.45
2022-08-24T21:01:08.354Z,8.52
2022-08-24T21:03:36.822Z,9.23
2022-08-24T21:06:05.891Z,11.95
2022-08-24T21:08:34.121Z,10.48
2022-08-24T21:11:03.843Z,10.90
2022-08-24T21:13:32.126Z,11.07
2022-08-24T21:16:00.871Z,13.35
2022-08-24T21:18:29.278Z,20.77
2022-08-24T21:21:03.701Z,13.07
2022-08-24T21:23:33.232Z,14.85
2022-08-24T21:26:04.425Z,10.60
2022-08-24T21:28:33.374Z,15.57
2022-08-24T21:31:05.285Z,18.42
2022-08-24T21:33:51.340Z,14.35
2022-08-24T21:36:20.543Z,14.57
2022-08-24T21:38:48.489Z,11.90
2022-08-24T21:41:17.916Z,13.48
2022-08-24T21:43:46.043Z,16.95
2022-08-24T21:46:14.586Z,13.02
2022-08-24T21:48:42.845Z,11.48
2022-08-24T21:51:11.290Z,15.38
2022-08-24T21:53:39.541Z,17.17
2022-08-24T21:56:08.152Z,13.05
2022-08-24T21:58:37.662Z,19.17
2022-08-24T22:01:05.864Z,15.80
2022-08-24T22:03:39.793Z,17.33
2022-08-24T22:06:09.286Z,14.20
2022-08-24T22:08:38.919Z,16.17
2022-08-24T22:11:12.789Z,13.55
2022-08-24T22:13:47.186Z,18.00
2022-08-24T22:16:15.743Z,13.15
2022-08-24T22:18:44.116Z,12.00
2022-08-24T22:21:18.114Z,10.32
2022-08-24T22:23:48.104Z,12.63
2022-08-24T22:26:17.733Z,13.25
2022-08-24T22:28:48.987Z,15.57
2022-08-24T22:31:21.233Z,14.23
2022-08-24T22:33:51.661Z,12.95
2022-08-24T22:36:20.894Z,14.05
2022-08-24T22:38:50.903Z,19.13
2022-08-24T22:41:22.339Z,15.70
2022-08-24T22:44:11.987Z,14.77
2022-08-24T22:46:41.661Z,13.40
2022-08-24T22:49:11.966Z,20.67
2022-08-24T22:51:40.871Z,21.77
2022-08-24T22:54:13.190Z,20.00
2022-08-24T22:56:48.107Z,15.70
2022-08-24T22:59:23.550Z,13.70
2022-08-24T23:01:57.368Z,17.98
2022-08-24T23:04:32.251Z,16.02
2022-08-24T23:07:04.224Z,14.13
2022-08-24T23:09:36.633Z,13.52
2022-08-24T23:12:23.746Z,6.97
2022-08-24T23:14:55.000Z,7.88
2022-08-24T23:17:36.746Z,13.18
2022-08-24T23:20:09.289Z,12.10
2022-08-24T23:22:43.779Z,7.65
2022-08-24T23:25:15.013Z,13.98
2022-08-24T23:27:46.613Z,6.32
2022-08-24T23:30:22.730Z,8.15
2022-08-24T23:32:52.553Z,7.82
2022-08-24T23:35:21.082Z,6.55
2022-08-24T23:37:49.514Z,8.43
2022-08-24T23:40:20.765Z,6.93
2022-08-24T23:42:50.965Z,5.50
2022-08-24T23:45:28.273Z,7.60
2022-08-24T23:48:00.342Z,10.07
2022-08-24T23:50:33.216Z,7.03
2022-08-24T23:53:04.017Z,7.85
2022-08-24T23:55:33.814Z,8.68
2022-08-24T23:58:04.677Z,6.05
